FKH70 UZTT-UZST
Flight info
| Callsign | FKH70 |
|---|---|
| Flight time | N/A |
| Altitude | 34000 |
| Route | KUFIM2A KUFIM DCT NETAT DCT TITAR DCT RONVU/K0852F330 DCT USETU DCT ARPIZ DCT LAVMI DCT FIZLE FIZLE2Y |
| Aircraft | B753/M-SDE2E3FGHIJ3J4J7RWXY/LB1 |
Departure
| Time | 2026-04-25 15:21 |
|---|---|
| Airport | Tashkent International Airport (UZTT) |
Arrival
| Time | N/A |
|---|---|
| Airport | UZST |
| Time | Latitude | Longitude | Altitude | Speed | Heading |
|---|---|---|---|---|---|
| 2026-04-25 14:46 | 41.26198 | 69.27425 | 1428 ft | 0 kts | 262° |
| 2026-04-25 15:07 | 41.26200 | 69.27441 | 1427 ft | 2 kts | 262° |
| 2026-04-25 15:07 | 41.26202 | 69.27460 | 1428 ft | 2 kts | 262° |
| 2026-04-25 15:07 | 41.26201 | 69.27480 | 1427 ft | 2 kts | 296° |
| 2026-04-25 15:07 | 41.26192 | 69.27496 | 1427 ft | 2 kts | 332° |
| 2026-04-25 15:08 | 41.26178 | 69.27501 | 1427 ft | 2 kts | 358° |
| 2026-04-25 15:08 | 41.26163 | 69.27502 | 1427 ft | 2 kts | 352° |
| 2026-04-25 15:08 | 41.26148 | 69.27505 | 1427 ft | 2 kts | 351° |
| 2026-04-25 15:08 | 41.26132 | 69.27509 | 1427 ft | 2 kts | 352° |
| 2026-04-25 15:09 | 41.26117 | 69.27511 | 1427 ft | 2 kts | 352° |
| 2026-04-25 15:09 | 41.26103 | 69.27518 | 1427 ft | 2 kts | 309° |
| 2026-04-25 15:09 | 41.26099 | 69.27554 | 1427 ft | 2 kts | 255° |
| 2026-04-25 15:10 | 41.26101 | 69.27566 | 1427 ft | 1 kts | 260° |
| 2026-04-25 15:13 | 41.26096 | 69.27525 | 1427 ft | 7 kts | 262° |
| 2026-04-25 15:13 | 41.26075 | 69.27335 | 1427 ft | 11 kts | 261° |
| 2026-04-25 15:13 | 41.26053 | 69.27275 | 1427 ft | 5 kts | 212° |
| 2026-04-25 15:14 | 41.26022 | 69.27288 | 1427 ft | 6 kts | 139° |
| 2026-04-25 15:14 | 41.25979 | 69.27339 | 1427 ft | 10 kts | 138° |
| 2026-04-25 15:14 | 41.25931 | 69.27395 | 1427 ft | 6 kts | 138° |
| 2026-04-25 15:14 | 41.25924 | 69.27402 | 1427 ft | 0 kts | 138° |
| 2026-04-25 15:15 | 41.25922 | 69.27406 | 1427 ft | 2 kts | 138° |
| 2026-04-25 15:15 | 41.25894 | 69.27438 | 1427 ft | 8 kts | 138° |
| 2026-04-25 15:15 | 41.25843 | 69.27498 | 1427 ft | 12 kts | 138° |
| 2026-04-25 15:16 | 41.25781 | 69.27580 | 1427 ft | 16 kts | 135° |
| 2026-04-25 15:16 | 41.25695 | 69.27675 | 1427 ft | 16 kts | 142° |
| 2026-04-25 15:16 | 41.25588 | 69.27504 | 1427 ft | 18 kts | 261° |
| 2026-04-25 15:17 | 41.25546 | 69.27129 | 1427 ft | 24 kts | 263° |
| 2026-04-25 15:17 | 41.25520 | 69.26892 | 1427 ft | 27 kts | 261° |
| 2026-04-25 15:17 | 41.25492 | 69.26640 | 1427 ft | 30 kts | 261° |
| 2026-04-25 15:18 | 41.25462 | 69.26369 | 1427 ft | 33 kts | 261° |
| 2026-04-25 15:18 | 41.25423 | 69.25841 | 1427 ft | 16 kts | 309° |
| 2026-04-25 15:18 | 41.25536 | 69.25799 | 1427 ft | 17 kts | 352° |
| 2026-04-25 15:19 | 41.25602 | 69.25899 | 1427 ft | 5 kts | 82° |
| 2026-04-25 15:19 | 41.25602 | 69.25905 | 1427 ft | 1 kts | 82° |
| 2026-04-25 15:19 | 41.25602 | 69.25906 | 1427 ft | 0 kts | 82° |
| 2026-04-25 15:20 | 41.25624 | 69.26112 | 1427 ft | 54 kts | 82° |
| 2026-04-25 15:20 | 41.25694 | 69.26752 | 1428 ft | 108 kts | 82° |
| 2026-04-25 15:20 | 41.25848 | 69.28147 | 1428 ft | 171 kts | 82° |
| 2026-04-25 15:20 | 41.26045 | 69.29922 | 1498 ft | 214 kts | 82° |
| 2026-04-25 15:21 | 41.26242 | 69.31827 | 2434 ft | 203 kts | 84° |
| 2026-04-25 15:21 | 41.26387 | 69.33630 | 3317 ft | 203 kts | 85° |
| 2026-04-25 15:21 | 41.26508 | 69.35716 | 3073 ft | 270 kts | 87° |
| 2026-04-25 15:21 | 41.26271 | 69.38297 | 3103 ft | 321 kts | 107° |
| 2026-04-25 15:22 | 41.25314 | 69.41013 | 3500 ft | 355 kts | 123° |
| 2026-04-25 15:22 | 41.23651 | 69.43436 | 4491 ft | 365 kts | 140° |
| 2026-04-25 15:22 | 41.21479 | 69.45206 | 5549 ft | 364 kts | 155° |
| 2026-04-25 15:22 | 41.19171 | 69.46133 | 5964 ft | 345 kts | 171° |
| 2026-04-25 15:23 | 41.16857 | 69.46135 | 6304 ft | 321 kts | 188° |
| 2026-04-25 15:23 | 41.14854 | 69.45258 | 6635 ft | 291 kts | 211° |
| 2026-04-25 15:23 | 41.13441 | 69.43600 | 6978 ft | 263 kts | 237° |
| 2026-04-25 15:23 | 41.12562 | 69.41515 | 7364 ft | 260 kts | 242° |
| 2026-04-25 15:24 | 41.11695 | 69.39408 | 7793 ft | 261 kts | 241° |
| 2026-04-25 15:24 | 41.10815 | 69.37317 | 8218 ft | 262 kts | 240° |
| 2026-04-25 15:24 | 41.09913 | 69.35190 | 8648 ft | 263 kts | 240° |
| 2026-04-25 15:24 | 41.09613 | 69.34483 | 8791 ft | 264 kts | 240° |
| 2026-04-25 15:25 | 41.08406 | 69.31649 | 9359 ft | 266 kts | 240° |
| 2026-04-25 15:25 | 41.07138 | 69.28681 | 9547 ft | 296 kts | 239° |
| 2026-04-25 15:25 | 41.06132 | 69.26333 | 10348 ft | 295 kts | 239° |
| 2026-04-25 15:25 | 41.05098 | 69.23919 | 10726 ft | 311 kts | 239° |
| 2026-04-25 15:26 | 41.03984 | 69.21327 | 10803 ft | 338 kts | 239° |
| 2026-04-25 15:26 | 41.02794 | 69.18552 | 11356 ft | 348 kts | 239° |
| 2026-04-25 15:26 | 41.01614 | 69.15801 | 12247 ft | 347 kts | 239° |
| 2026-04-25 15:26 | 41.00417 | 69.13016 | 12890 ft | 353 kts | 239° |
| 2026-04-25 15:27 | 40.99191 | 69.10166 | 13664 ft | 356 kts | 239° |
| 2026-04-25 15:27 | 40.97974 | 69.07340 | 14428 ft | 358 kts | 239° |
| 2026-04-25 15:27 | 40.95511 | 69.01630 | 15970 ft | 361 kts | 239° |
| 2026-04-25 15:28 | 40.94271 | 68.98762 | 16747 ft | 361 kts | 239° |
| 2026-04-25 15:28 | 40.93025 | 68.95881 | 17483 ft | 362 kts | 239° |
| 2026-04-25 15:28 | 40.91764 | 68.92969 | 18179 ft | 364 kts | 240° |
| 2026-04-25 15:28 | 40.90511 | 68.90077 | 18840 ft | 366 kts | 240° |
| 2026-04-25 15:29 | 40.89259 | 68.87190 | 19463 ft | 369 kts | 240° |
| 2026-04-25 15:29 | 40.87976 | 68.84232 | 20071 ft | 372 kts | 240° |
| 2026-04-25 15:29 | 40.86699 | 68.81291 | 20671 ft | 375 kts | 240° |
| 2026-04-25 15:29 | 40.85595 | 68.78753 | 21172 ft | 377 kts | 240° |
| 2026-04-25 15:30 | 40.84314 | 68.75807 | 21738 ft | 380 kts | 241° |
| 2026-04-25 15:30 | 40.81499 | 68.69428 | 22898 ft | 386 kts | 237° |
| 2026-04-25 15:30 | 40.79833 | 68.66644 | 23424 ft | 389 kts | 229° |
| 2026-04-25 15:31 | 40.78009 | 68.63998 | 23945 ft | 392 kts | 229° |
| 2026-04-25 15:31 | 40.76171 | 68.61339 | 24441 ft | 395 kts | 229° |
| 2026-04-25 15:31 | 40.74304 | 68.58654 | 24936 ft | 397 kts | 229° |
| 2026-04-25 15:31 | 40.72446 | 68.55992 | 25416 ft | 400 kts | 229° |
| 2026-04-25 15:32 | 40.70554 | 68.53288 | 25883 ft | 402 kts | 229° |
| 2026-04-25 15:32 | 40.69033 | 68.51118 | 26253 ft | 404 kts | 229° |
| 2026-04-25 15:32 | 40.67639 | 68.49132 | 26579 ft | 406 kts | 229° |
| 2026-04-25 15:33 | 40.61204 | 68.40002 | 27994 ft | 414 kts | 228° |
| 2026-04-25 15:33 | 40.58758 | 68.36775 | 28483 ft | 417 kts | 227° |
| 2026-04-25 15:34 | 40.56475 | 68.33778 | 28915 ft | 420 kts | 226° |
| 2026-04-25 15:34 | 40.54402 | 68.31055 | 29302 ft | 422 kts | 226° |
| 2026-04-25 15:34 | 40.52310 | 68.28309 | 29692 ft | 424 kts | 226° |
| 2026-04-25 15:34 | 40.50907 | 68.26469 | 29935 ft | 426 kts | 226° |
| 2026-04-25 15:35 | 40.45989 | 68.20026 | 30804 ft | 430 kts | 227° |
| 2026-04-25 15:35 | 40.43875 | 68.17261 | 31319 ft | 428 kts | 227° |
| 2026-04-25 15:35 | 40.41759 | 68.14497 | 31808 ft | 426 kts | 227° |
| 2026-04-25 15:36 | 40.37606 | 68.09077 | 32680 ft | 424 kts | 227° |
| 2026-04-25 15:36 | 40.35562 | 68.06413 | 33098 ft | 422 kts | 227° |
| 2026-04-25 15:36 | 40.33471 | 68.03690 | 33514 ft | 421 kts | 227° |
| 2026-04-25 15:37 | 40.31374 | 68.00963 | 33916 ft | 419 kts | 227° |
| 2026-04-25 15:37 | 40.29357 | 67.98340 | 34077 ft | 421 kts | 227° |